Terminal Aerodrome Forecast
Issued by NWS

Home | Current Version | Previous Version | Text Only | Print | Product List | Glossary On
Versions: 1 2 3 4 5 6 7 8 9 10 11 12 13 14
908
FTUS43 KAPX 250532
TAFMBL
TAF
KMBL 250532Z 2506/2606 04007KT P6SM -RA SCT009 OVC025
     FM251300 08010G18KT P6SM OVC040
     FM251500 09011G20KT P6SM VCSH OVC035
     FM251900 09014G23KT P6SM VCSH OVC015
     FM252100 10014G23KT P6SM -RA OVC015
     FM260000 09009KT 5SM -RA BR OVC008
     FM260200 10010G22KT 3SM -RA BR OVC008=

USA.gov is the U.S. government's official web portal to all federal, state and local government web resources and services.